Time;durP1;ratioP1;P1;durP2;ratioP2;P2;SDS_P1;SDS_P2;PMS_P1;PMS_P2;Temp;Humidity;BMP_temperature;BMP_pressure;BME280_temperature;BME280_humidity;BME280_pressure;Samples;Min_cycle;Max_cycle;Signal;HPM_P1;HPM_P2
2022/07/17 00:00:41;;;;;;;5.65;2.50;;;17.70;76.70;;;;;;4979632;28;20019;-80
2022/07/17 00:03:11;;;;;;;5.07;2.80;;;17.70;76.60;;;;;;4978364;28;20034;-80
2022/07/17 00:05:38;;;;;;;4.47;2.58;;;17.80;76.60;;;;;;4976628;28;20031;-80
2022/07/17 00:08:06;;;;;;;4.78;2.30;;;17.80;76.60;;;;;;4958222;28;20033;-81
2022/07/17 00:10:33;;;;;;;3.95;1.92;;;17.80;76.60;;;;;;4992185;28;20573;-82
2022/07/17 00:12:58;;;;;;;6.25;2.05;;;17.80;76.80;;;;;;4990781;28;20031;-85
2022/07/17 00:15:24;;;;;;;4.13;2.05;;;17.80;76.80;;;;;;4991502;28;20033;-81
2022/07/17 00:17:50;;;;;;;5.22;2.05;;;17.80;77.00;;;;;;4960136;28;20030;-80
2022/07/17 00:20:16;;;;;;;5.65;2.03;;;17.80;76.90;;;;;;4973651;28;20026;-83
2022/07/17 00:22:43;;;;;;;5.22;1.92;;;17.80;76.90;;;;;;4976144;28;20047;-82
2022/07/17 00:25:10;;;;;;;4.65;2.10;;;17.80;76.90;;;;;;4979583;28;20042;-79
2022/07/17 00:27:37;;;;;;;12.48;2.47;;;17.80;77.00;;;;;;4982987;28;20076;-80
2022/07/17 00:30:04;;;;;;;4.63;1.98;;;17.80;77.20;;;;;;4990593;28;20105;-83
2022/07/17 00:32:29;;;;;;;4.88;2.30;;;17.80;77.40;;;;;;4991496;28;20563;-81
2022/07/17 00:34:56;;;;;;;8.77;2.83;;;17.80;77.50;;;;;;4988037;28;20023;-80
2022/07/17 00:37:22;;;;;;;5.07;2.40;;;17.70;77.50;;;;;;4968409;28;20176;-80
2022/07/17 00:39:47;;;;;;;6.75;2.97;;;17.70;77.80;;;;;;4970664;28;20117;-80
2022/07/17 00:42:16;;;;;;;2.70;1.95;;;17.70;77.90;;;;;;4980623;28;20032;-80
2022/07/17 00:44:43;;;;;;;4.25;2.63;;;17.70;78.10;;;;;;4977512;28;20030;-81
2022/07/17 00:47:11;;;;;;;;;;;17.70;78.40;;;;;;4986083;28;20030;-80
2022/07/17 00:49:36;;;;;;;6.15;2.42;;;17.70;77.90;;;;;;4986892;28;19912;-80
2022/07/17 00:52:02;;;;;;;5.28;2.30;;;17.60;78.60;;;;;;4975276;28;20019;-80
2022/07/17 00:54:30;;;;;;;5.78;2.50;;;17.60;78.90;;;;;;4973009;28;20026;-81
2022/07/17 00:56:58;;;;;;;5.50;2.60;;;17.60;79.00;;;;;;4975948;28;20039;-81
2022/07/17 00:59:24;;;;;;;5.38;2.60;;;17.60;79.10;;;;;;4988701;28;20046;-81
2022/07/17 01:01:50;;;;;;;6.13;2.30;;;17.60;79.20;;;;;;4978363;28;20043;-81
2022/07/17 01:04:16;;;;;;;5.75;2.42;;;17.60;79.40;;;;;;4991442;28;20356;-80
2022/07/17 01:06:42;;;;;;;5.32;2.75;;;17.60;79.50;;;;;;4989208;28;20482;-82
2022/07/17 01:09:10;;;;;;;5.07;2.50;;;17.60;79.70;;;;;;4972647;28;20081;-81
2022/07/17 01:11:36;;;;;;;4.88;2.25;;;17.60;79.80;;;;;;4984710;28;20086;-81
2022/07/17 01:14:02;;;;;;;9.10;2.42;;;17.60;79.90;;;;;;4989490;28;20034;-81
2022/07/17 01:16:29;;;;;;;6.57;3.00;;;17.60;79.90;;;;;;4990313;28;20122;-80
2022/07/17 01:18:56;;;;;;;6.33;3.07;;;17.60;79.90;;;;;;4972290;28;20066;-81
2022/07/17 01:21:22;;;;;;;4.18;2.60;;;17.50;80.00;;;;;;4993097;28;20332;-81
2022/07/17 01:23:48;;;;;;;6.38;2.60;;;17.50;80.10;;;;;;4990149;28;20058;-81
2022/07/17 01:26:14;;;;;;;5.20;2.40;;;17.60;80.30;;;;;;4971948;28;20464;-80
2022/07/17 01:28:39;;;;;;;6.70;3.15;;;17.60;80.90;;;;;;4988242;28;20109;-81
2022/07/17 01:31:05;;;;;;;5.55;2.42;;;17.60;80.40;;;;;;4994806;28;20029;-81
2022/07/17 01:33:31;;;;;;;6.80;2.88;;;17.60;80.30;;;;;;4994918;28;20022;-80
2022/07/17 01:35:57;;;;;;;4.85;2.60;;;17.60;80.40;;;;;;4983504;28;20029;-81
2022/07/17 01:38:23;;;;;;;5.63;2.83;;;17.60;80.30;;;;;;4994089;28;20019;-81
2022/07/17 01:40:49;;;;;;;6.07;3.13;;;17.60;80.40;;;;;;4991633;28;20033;-81
2022/07/17 01:43:15;;;;;;;8.27;2.80;;;17.70;80.50;;;;;;4992975;28;20037;-79
2022/07/17 01:45:40;;;;;;;6.55;3.42;;;17.70;80.40;;;;;;4991320;28;20034;-80
2022/07/17 01:48:06;;;;;;;5.32;3.05;;;17.70;80.50;;;;;;4990624;28;20018;-80
2022/07/17 01:50:32;;;;;;;6.55;3.35;;;17.70;80.50;;;;;;4991607;28;20030;-80
2022/07/17 01:52:58;;;;;;;6.60;2.92;;;17.80;80.70;;;;;;4987814;28;20027;-80
2022/07/17 01:55:24;;;;;;;9.80;2.60;;;17.80;80.80;;;;;;4974474;28;20025;-80
2022/07/17 01:57:50;;;;;;;5.82;3.20;;;17.80;80.80;;;;;;4987616;28;20102;-80
2022/07/17 02:00:17;;;;;;;7.72;2.53;;;17.90;80.60;;;;;;4968212;28;20422;-80
2022/07/17 02:02:44;;;;;;;4.95;2.80;;;17.90;80.00;;;;;;4986890;28;20431;-80
2022/07/17 02:05:10;;;;;;;12.95;3.10;;;17.90;80.00;;;;;;4994005;28;20484;-82
2022/07/17 02:07:39;;;;;;;4.50;2.60;;;18.00;79.70;;;;;;4967409;28;20037;-81
2022/07/17 02:10:06;;;;;;;7.75;2.50;;;18.00;79.60;;;;;;4977544;28;20019;-81
2022/07/17 02:12:32;;;;;;;5.38;3.17;;;18.10;79.70;;;;;;4984555;28;20054;-81
2022/07/17 02:14:58;;;;;;;7.43;3.55;;;18.10;79.30;;;;;;4969477;28;20019;-82
2022/07/17 02:17:23;;;;;;;7.40;2.95;;;18.10;79.40;;;;;;4992436;28;20023;-81
2022/07/17 02:19:49;;;;;;;5.45;3.03;;;18.10;79.60;;;;;;4972467;28;20036;-82
2022/07/17 02:22:15;;;;;;;5.70;2.85;;;18.10;79.70;;;;;;4985801;28;20035;-80
2022/07/17 02:24:41;;;;;;;4.72;3.03;;;18.10;79.80;;;;;;4996176;28;20077;-81
2022/07/17 02:27:07;;;;;;;7.88;2.75;;;18.10;79.80;;;;;;4995542;28;20026;-81
2022/07/17 02:29:33;;;;;;;8.68;4.18;;;18.20;79.80;;;;;;4964995;28;20019;-82
2022/07/17 02:31:58;;;;;;;10.05;4.30;;;18.20;79.80;;;;;;4983849;28;20031;-82
2022/07/17 02:34:24;;;;;;;11.60;3.50;;;18.20;79.80;;;;;;4971502;28;20335;-81
2022/07/17 02:36:50;;;;;;;7.00;3.90;;;18.30;79.50;;;;;;4983955;28;20030;-82
2022/07/17 02:39:16;;;;;;;7.97;2.92;;;18.30;79.30;;;;;;4986585;28;20427;-81
2022/07/17 02:41:41;;;;;;;12.10;3.55;;;18.30;79.80;;;;;;4984361;28;20035;-82
2022/07/17 02:44:07;;;;;;;9.25;4.13;;;18.30;79.70;;;;;;4984688;28;20031;-82
2022/07/17 02:46:33;;;;;;;12.05;3.95;;;18.30;80.30;;;;;;4984906;28;20065;-83
2022/07/17 02:48:59;;;;;;;12.95;4.53;;;18.30;80.10;;;;;;4982249;28;20023;-81
2022/07/17 02:51:25;;;;;;;9.32;4.60;;;18.30;80.40;;;;;;4986365;28;20471;-81
2022/07/17 02:53:51;;;;;;;12.07;4.40;;;18.30;79.60;;;;;;4963085;28;20137;-82
2022/07/17 02:56:17;;;;;;;10.55;4.00;;;18.30;80.10;;;;;;4985217;28;20105;-82
2022/07/17 02:58:43;;;;;;;12.82;4.75;;;18.30;80.60;;;;;;4979661;28;20465;-81
2022/07/17 03:01:08;;;;;;;8.02;4.45;;;18.30;80.90;;;;;;4978516;28;20019;-81
2022/07/17 03:03:34;;;;;;;14.57;4.53;;;18.30;81.20;;;;;;4992459;28;20383;-82
2022/07/17 03:06:00;;;;;;;7.72;4.63;;;18.30;81.30;;;;;;4993162;28;20030;-82
2022/07/17 03:08:26;;;;;;;15.00;9.13;;;18.30;81.10;;;;;;4991373;28;20022;-82
2022/07/17 03:10:52;;;;;;;20.50;7.28;;;18.30;81.20;;;;;;4983597;28;20047;-81
2022/07/17 03:13:18;;;;;;;11.00;4.20;;;18.40;81.30;;;;;;4986205;28;20027;-80
2022/07/17 03:15:44;;;;;;;10.65;5.25;;;18.40;81.40;;;;;;4986445;28;20034;-80
2022/07/17 03:18:10;;;;;;;9.45;4.93;;;18.40;81.30;;;;;;4972276;28;20109;-80
2022/07/17 03:20:36;;;;;;;13.35;4.53;;;18.50;81.10;;;;;;4987804;28;20097;-82
2022/07/17 03:23:02;;;;;;;11.60;5.45;;;18.50;80.70;;;;;;4983505;28;20042;-81
2022/07/17 03:25:28;;;;;;;8.82;4.93;;;18.50;80.80;;;;;;4983377;28;20046;-80
2022/07/17 03:27:53;;;;;;;10.55;4.95;;;18.50;80.90;;;;;;4989000;28;20041;-79
2022/07/17 03:30:19;;;;;;;12.48;4.63;;;18.50;80.80;;;;;;4979241;28;20384;-82
2022/07/17 03:32:45;;;;;;;12.27;4.97;;;18.60;81.00;;;;;;4976487;28;20042;-82
2022/07/17 03:35:11;;;;;;;9.15;4.70;;;18.70;81.00;;;;;;4983217;28;20073;-81
2022/07/17 03:37:37;;;;;;;10.07;4.68;;;18.70;80.70;;;;;;4979206;28;20026;-83
2022/07/17 03:40:05;;;;;;;10.70;5.57;;;18.80;80.60;;;;;;4982894;28;20384;-81
2022/07/17 03:42:31;;;;;;;7.82;4.53;;;18.70;80.40;;;;;;4984759;28;20478;-83
2022/07/17 03:44:57;;;;;;;11.05;4.63;;;18.70;80.60;;;;;;4983248;28;20026;-82
2022/07/17 03:47:23;;;;;;;10.25;4.72;;;18.80;80.60;;;;;;4975816;28;20037;-84
2022/07/17 03:49:49;;;;;;;9.60;4.15;;;18.90;80.00;;;;;;4985408;28;20369;-84
2022/07/17 03:52:14;;;;;;;12.75;4.72;;;18.90;79.40;;;;;;4979756;28;20023;-81
2022/07/17 03:54:40;;;;;;;9.57;4.32;;;19.00;79.30;;;;;;4967097;28;20038;-83
2022/07/17 03:57:06;;;;;;;7.40;4.00;;;19.10;79.00;;;;;;4978665;28;20097;-80
2022/07/17 03:59:32;;;;;;;8.27;4.32;;;19.20;78.50;;;;;;4980832;28;20022;-79
2022/07/17 04:01:57;;;;;;;6.93;4.07;;;19.40;77.90;;;;;;4979321;28;20084;-81
2022/07/17 04:04:23;;;;;;;8.70;4.40;;;19.50;77.50;;;;;;4992512;28;20554;-80
2022/07/17 04:06:49;;;;;;;8.88;4.40;;;19.50;77.20;;;;;;4990807;28;20034;-81
2022/07/17 04:09:15;;;;;;;14.60;5.45;;;19.50;77.60;;;;;;4991717;28;20038;-81
2022/07/17 04:11:40;;;;;;;12.93;4.82;;;19.50;78.00;;;;;;4988912;28;20097;-81
2022/07/17 04:14:06;;;;;;;8.52;4.30;;;19.50;77.60;;;;;;4991239;28;20310;-81
2022/07/17 04:16:32;;;;;;;7.13;4.68;;;19.40;77.60;;;;;;4988385;28;20077;-82
2022/07/17 04:18:58;;;;;;;9.73;4.65;;;19.40;77.90;;;;;;4975696;28;20056;-80
2022/07/17 04:21:24;;;;;;;10.40;5.00;;;19.30;77.90;;;;;;4978283;28;20026;-81
2022/07/17 04:23:50;;;;;;;5.85;4.40;;;19.20;78.40;;;;;;4980127;28;20046;-81
2022/07/17 04:26:15;;;;;;;6.57;3.78;;;19.10;78.80;;;;;;4987996;28;20019;-81
2022/07/17 04:28:41;;;;;;;5.63;3.97;;;19.10;79.10;;;;;;4984091;28;20509;-81
2022/07/17 04:31:07;;;;;;;7.07;4.57;;;19.10;78.30;;;;;;4988216;28;20018;-81
2022/07/17 04:33:33;;;;;;;5.78;3.90;;;19.20;78.50;;;;;;4982695;28;20054;-80
2022/07/17 04:35:59;;;;;;;5.05;3.72;;;19.40;77.20;;;;;;4986335;28;20054;-81
2022/07/17 04:38:25;;;;;;;4.28;3.67;;;19.40;77.00;;;;;;4967173;28;20031;-80
2022/07/17 04:40:51;;;;;;;6.63;3.85;;;19.60;75.60;;;;;;4966861;28;20026;-80
2022/07/17 04:43:17;;;;;;;7.32;3.90;;;19.80;74.90;;;;;;4981754;28;20030;-81
2022/07/17 04:45:42;;;;;;;5.03;2.70;;;19.80;74.20;;;;;;4986888;28;20027;-82
2022/07/17 04:48:08;;;;;;;7.68;3.10;;;19.90;72.60;;;;;;4973908;28;20027;-81
2022/07/17 04:50:34;;;;;;;6.05;3.22;;;19.90;72.40;;;;;;4989648;28;20022;-81
2022/07/17 04:53:00;;;;;;;5.50;2.40;;;20.00;71.80;;;;;;4989200;28;20114;-81
2022/07/17 04:55:27;;;;;;;7.35;3.08;;;20.00;71.40;;;;;;4989594;28;20135;-81
2022/07/17 04:57:53;;;;;;;3.97;2.97;;;20.00;71.80;;;;;;4988006;28;20069;-81
2022/07/17 05:00:20;;;;;;;3.70;2.35;;;20.20;71.70;;;;;;4984136;28;20054;-81
2022/07/17 05:02:46;;;;;;;3.80;2.37;;;20.30;70.60;;;;;;4955368;28;20049;-82
2022/07/17 05:05:12;;;;;;;4.57;2.25;;;20.40;69.80;;;;;;4976873;28;20084;-81
2022/07/17 05:07:38;;;;;;;6.78;2.45;;;20.60;68.60;;;;;;4992121;28;20487;-81
2022/07/17 05:10:05;;;;;;;5.10;2.50;;;20.60;67.90;;;;;;4975706;28;20027;-82
2022/07/17 05:12:30;;;;;;;4.15;2.00;;;20.70;67.50;;;;;;4981415;28;20050;-81
2022/07/17 05:14:56;;;;;;;3.03;2.13;;;20.80;66.80;;;;;;5000106;28;20030;-80
2022/07/17 05:17:22;;;;;;;2.60;2.03;;;20.90;66.10;;;;;;5004165;28;20019;-82
2022/07/17 05:19:48;;;;;;;5.78;2.13;;;20.90;65.80;;;;;;4981793;28;20472;-82
2022/07/17 05:22:14;;;;;;;2.92;1.92;;;21.10;65.40;;;;;;4981492;28;20026;-81
2022/07/17 05:24:40;;;;;;;6.13;2.00;;;21.20;64.50;;;;;;4980928;28;20041;-83
2022/07/17 05:27:06;;;;;;;3.38;1.80;;;21.10;63.40;;;;;;4983150;28;20027;-82
2022/07/17 05:29:32;;;;;;;2.58;1.70;;;21.10;63.20;;;;;;4980031;28;20524;-82
2022/07/17 05:31:58;;;;;;;1.92;1.50;;;21.20;63.10;;;;;;4971893;28;20027;-82
2022/07/17 05:34:24;;;;;;;6.00;1.83;;;21.40;63.10;;;;;;4985864;28;20026;-83
2022/07/17 05:36:50;;;;;;;4.05;1.63;;;21.80;63.10;;;;;;4973615;28;20031;-83
2022/07/17 05:39:16;;;;;;;2.83;1.92;;;23.10;61.30;;;;;;4983690;28;20050;-82
2022/07/17 05:41:41;;;;;;;2.33;1.70;;;24.20;57.50;;;;;;4956841;28;20054;-81
2022/07/17 05:44:08;;;;;;;1.63;1.30;;;24.90;55.10;;;;;;4980627;28;20531;-81
2022/07/17 05:46:33;;;;;;;1.90;1.52;;;24.90;53.70;;;;;;4980456;28;20038;-82
2022/07/17 05:48:59;;;;;;;3.00;1.77;;;24.50;54.20;;;;;;4977661;28;20054;-82
2022/07/17 05:51:25;;;;;;;2.58;1.35;;;24.10;54.40;;;;;;4980689;28;20025;-82
2022/07/17 05:53:51;;;;;;;3.40;1.27;;;23.90;54.50;;;;;;4975722;28;20428;-82
2022/07/17 05:56:17;;;;;;;3.83;1.83;;;23.80;54.80;;;;;;4982475;28;20047;-82
2022/07/17 05:58:43;;;;;;;3.53;1.63;;;;;;;;;;4975337;28;20101;-82
2022/07/17 06:01:09;;;;;;;2.83;1.40;;;24.40;54.80;;;;;;4974555;28;20023;-82
2022/07/17 06:03:35;;;;;;;3.40;1.40;;;27.00;50.40;;;;;;4977000;28;20372;-83
2022/07/17 06:06:00;;;;;;;2.28;1.38;;;28.40;47.30;;;;;;4994367;28;20080;-82
2022/07/17 06:08:26;;;;;;;3.88;1.63;;;29.20;45.30;;;;;;4992318;28;20523;-83
2022/07/17 06:10:52;;;;;;;7.03;1.52;;;30.10;44.00;;;;;;4975367;28;20046;-82
2022/07/17 06:13:18;;;;;;;3.55;1.35;;;31.30;42.50;;;;;;4990513;28;20026;-82
2022/07/17 06:15:43;;;;;;;3.33;1.00;;;32.40;40.60;;;;;;4992699;28;20058;-80
2022/07/17 06:18:09;;;;;;;4.73;1.23;;;33.20;39.20;;;;;;4987522;28;20101;-81
2022/07/17 06:20:35;;;;;;;4.22;1.30;;;34.50;40.00;;;;;;4978707;28;20570;-81
2022/07/17 06:23:01;;;;;;;4.37;1.13;;;34.90;37.60;;;;;;4988820;28;20031;-81
2022/07/17 06:25:27;;;;;;;7.87;1.47;;;36.10;36.80;;;;;;4986503;28;20022;-81
2022/07/17 06:27:52;;;;;;;3.63;1.47;;;37.70;36.90;;;;;;4967295;28;20113;-81
2022/07/17 06:30:18;;;;;;;3.07;1.10;;;38.00;34.60;;;;;;4983561;28;20033;-82
2022/07/17 06:32:44;;;;;;;2.13;0.90;;;39.20;33.60;;;;;;4988408;28;20434;-81
2022/07/17 06:35:10;;;;;;;3.00;0.80;;;39.80;32.20;;;;;;4982464;28;20475;-81
2022/07/17 06:37:36;;;;;;;1.85;0.80;;;;;;;;;;4986200;28;20026;-85
2022/07/17 06:40:03;;;;;;;3.40;1.30;;;40.10;31.30;;;;;;4981862;28;20380;-83
2022/07/17 06:42:29;;;;;;;3.67;1.00;;;40.20;30.40;;;;;;4965922;28;20086;-83
2022/07/17 06:44:54;;;;;;;2.10;0.90;;;40.50;30.10;;;;;;4982528;28;20022;-83
2022/07/17 06:47:20;;;;;;;2.35;1.10;;;40.60;30.80;;;;;;4981624;28;20090;-84
2022/07/17 06:49:46;;;;;;;1.95;1.35;;;40.30;30.70;;;;;;4966213;28;20038;-83
2022/07/17 06:52:12;;;;;;;3.55;1.15;;;39.60;30.50;;;;;;4962394;28;20046;-83
2022/07/17 06:54:38;;;;;;;7.13;1.40;;;39.40;31.00;;;;;;4982736;28;20064;-82
2022/07/17 06:57:04;;;;;;;4.13;1.13;;;39.10;31.00;;;;;;4961121;28;20034;-82
2022/07/17 06:59:29;;;;;;;1.58;0.73;;;38.90;31.10;;;;;;4980507;28;20022;-81
2022/07/17 07:01:55;;;;;;;2.10;0.90;;;39.30;31.50;;;;;;4974326;28;20046;-81
2022/07/17 07:04:21;;;;;;;1.20;0.85;;;39.50;30.80;;;;;;4957283;28;20042;-82
2022/07/17 07:06:47;;;;;;;1.17;0.90;;;39.50;30.40;;;;;;4989555;28;20101;-82
2022/07/17 07:09:13;;;;;;;4.20;0.98;;;40.10;30.20;;;;;;4974809;28;20539;-81
2022/07/17 07:11:39;;;;;;;3.22;1.08;;;40.80;30.60;;;;;;4989474;28;20578;-85
2022/07/17 07:14:06;;;;;;;;;;;41.20;29.70;;;;;;4991555;28;20125;-81
2022/07/17 07:16:32;;;;;;;4.50;1.15;;;41.10;30.50;;;;;;4969991;28;19914;-82
2022/07/17 07:18:58;;;;;;;1.60;0.80;;;40.70;29.70;;;;;;4980312;28;20050;-82
2022/07/17 07:21:26;;;;;;;2.25;1.05;;;40.20;29.70;;;;;;4960178;28;20127;-81
2022/07/17 07:23:52;;;;;;;2.38;1.13;;;40.50;29.70;;;;;;4965064;28;20105;-81
2022/07/17 07:26:18;;;;;;;5.60;2.85;;;40.60;29.70;;;;;;4977232;28;20095;-82
2022/07/17 07:28:44;;;;;;;3.28;1.60;;;40.80;29.30;;;;;;4976954;28;20031;-82
2022/07/17 07:31:10;;;;;;;4.28;1.20;;;41.10;29.10;;;;;;4975174;28;20102;-82
2022/07/17 07:33:36;;;;;;;;;;;;;;;;;;4975264;28;20030;-81
2022/07/17 07:36:02;;;;;;;1.58;0.63;;;;;;;;;;4972738;28;19917;-82
2022/07/17 07:38:28;;;;;;;2.90;0.68;;;41.20;29.10;;;;;;4974098;28;20022;-81
2022/07/17 07:40:54;;;;;;;1.13;0.75;;;41.00;30.00;;;;;;4972813;28;20142;-83
2022/07/17 07:43:19;;;;;;;2.83;0.95;;;40.80;29.00;;;;;;4992149;28;20034;-81
2022/07/17 07:45:45;;;;;;;5.15;0.80;;;39.20;29.80;;;;;;4978038;28;20056;-82
2022/07/17 07:48:11;;;;;;;3.95;0.98;;;;;;;;;;4973783;28;20038;-81
2022/07/17 07:50:37;;;;;;;4.78;1.00;;;;;;;;;;4988511;28;20057;-82
2022/07/17 07:53:04;;;;;;;2.10;0.80;;;;;;;;;;4967855;28;20034;-83
2022/07/17 07:55:30;;;;;;;3.17;0.95;;;;;;;;;;4991424;28;20486;-82
2022/07/17 07:58:22;;;;;;;3.03;1.00;;;;;;;;;;4989211;28;20117;-82
2022/07/17 08:00:48;;;;;;;3.65;0.60;;;37.10;30.60;;;;;;4977577;28;20081;-82
2022/07/17 08:03:14;;;;;;;6.15;1.75;;;38.90;30.20;;;;;;4959241;28;20035;-83
2022/07/17 08:05:40;;;;;;;2.38;1.38;;;39.10;30.00;;;;;;4996918;28;20121;-81
2022/07/17 08:08:06;;;;;;;2.53;1.05;;;;;;;;;;4998476;28;20081;-81
2022/07/17 08:10:32;;;;;;;4.25;1.35;;;;;;;;;;4975905;28;20480;-81
2022/07/17 08:12:59;;;;;;;1.60;1.00;;;;;;;;;;4985341;28;20113;-82
2022/07/17 08:15:25;;;;;;;3.08;1.42;;;40.10;30.10;;;;;;4968164;28;20023;-81
2022/07/17 08:17:52;;;;;;;4.47;1.15;;;37.70;30.50;;;;;;4983437;28;20045;-82
2022/07/17 08:20:19;;;;;;;2.45;0.98;;;38.50;30.80;;;;;;4977032;28;20476;-83
2022/07/17 08:22:45;;;;;;;1.42;0.90;;;;;;;;;;4973068;28;20402;-83
2022/07/17 08:25:12;;;;;;;4.10;1.23;;;;;;;;;;4968181;28;20065;-83
2022/07/17 08:27:38;;;;;;;;;;;;;;;;;;4990177;28;20030;-82
2022/07/17 08:30:08;;;;;;;2.97;1.00;;;;;;;;;;4987125;28;19905;-81
2022/07/17 08:32:35;;;;;;;3.42;1.30;;;41.40;29.40;;;;;;4988357;28;20023;-83
2022/07/17 08:35:01;;;;;;;2.45;0.85;;;42.60;27.90;;;;;;4986274;28;20038;-82
2022/07/17 08:37:27;;;;;;;;;;;43.10;27.50;;;;;;4985663;28;20018;-82
2022/07/17 08:39:52;;;;;;;15.63;3.30;;;43.40;28.40;;;;;;4985857;28;19952;-83
2022/07/17 08:42:18;;;;;;;3.22;1.85;;;41.90;27.20;;;;;;4982801;28;20081;-83
2022/07/17 08:44:45;;;;;;;5.30;1.58;;;39.40;28.10;;;;;;4985970;28;20069;-82
2022/07/17 08:47:15;;;;;;;3.50;1.77;;;36.80;29.40;;;;;;4980159;28;20022;-81
2022/07/17 08:49:45;;;;;;;3.50;1.95;;;34.50;31.70;;;;;;4972784;28;20026;-83
2022/07/17 08:52:12;;;;;;;13.10;2.30;;;32.40;34.80;;;;;;4986444;28;20031;-83
2022/07/17 08:54:39;;;;;;;3.15;2.00;;;30.80;37.10;;;;;;4972248;28;20027;-82
2022/07/17 08:57:05;;;;;;;4.03;1.55;;;29.60;39.00;;;;;;4958477;28;20019;-81
2022/07/17 08:59:31;;;;;;;3.47;1.83;;;28.60;40.40;;;;;;4958652;28;20030;-81
2022/07/17 09:01:59;;;;;;;2.33;1.27;;;27.80;41.10;;;;;;4972220;28;20062;-82
2022/07/17 09:04:25;;;;;;;1.90;1.23;;;27.20;42.00;;;;;;4971199;28;20106;-82
2022/07/17 09:07:02;;;;;;;2.65;1.38;;;26.80;42.30;;;;;;4982750;28;20122;-82
2022/07/17 09:09:28;;;;;;;5.32;1.60;;;26.30;42.60;;;;;;4984652;28;20033;-81
2022/07/17 09:11:55;;;;;;;4.45;1.63;;;25.90;43.80;;;;;;4983691;28;20042;-82
2022/07/17 09:14:21;;;;;;;4.32;1.40;;;25.80;44.50;;;;;;4983933;28;20026;-82
2022/07/17 09:16:56;;;;;;;4.65;1.48;;;26.00;44.00;;;;;;4980027;28;20026;-81
2022/07/17 09:19:33;;;;;;;3.78;1.70;;;26.20;44.00;;;;;;4965508;28;20426;-80
2022/07/17 09:22:12;;;;;;;4.88;1.63;;;25.90;44.70;;;;;;4971737;28;20031;-83
2022/07/17 09:24:57;;;;;;;2.30;1.33;;;25.70;43.90;;;;;;4963366;28;20103;-82
2022/07/17 09:27:32;;;;;;;2.20;1.40;;;25.40;44.40;;;;;;4957373;28;20449;-80
2022/07/17 09:30:09;;;;;;;4.00;1.70;;;25.10;45.00;;;;;;4955850;28;20041;-82
2022/07/17 09:32:38;;;;;;;3.38;1.50;;;24.90;45.50;;;;;;4977239;28;20022;-83
2022/07/17 09:35:06;;;;;;;4.80;1.42;;;24.70;46.30;;;;;;4958569;28;20073;-85
2022/07/17 09:37:33;;;;;;;3.45;1.70;;;24.70;47.50;;;;;;4982835;28;20029;-82
2022/07/17 09:39:59;;;;;;;4.65;2.63;;;24.90;46.10;;;;;;4981977;28;20019;-83
2022/07/17 09:42:34;;;;;;;2.17;1.15;;;25.00;46.40;;;;;;4966939;28;20110;-83
2022/07/17 09:45:01;;;;;;;2.38;1.60;;;25.10;45.80;;;;;;4963923;28;20463;-81
2022/07/17 09:47:28;;;;;;;;;;;25.30;45.90;;;;;;4982146;28;20090;-81
2022/07/17 09:49:55;;;;;;;3.40;1.42;;;25.50;45.20;;;;;;4980380;28;20356;-83
2022/07/17 09:52:24;;;;;;;5.13;1.73;;;25.40;45.60;;;;;;4978821;28;20031;-80
2022/07/17 09:54:53;;;;;;;5.38;1.65;;;25.30;44.50;;;;;;4962921;28;20080;-80
2022/07/17 09:57:24;;;;;;;6.22;2.05;;;25.10;45.10;;;;;;4961388;28;20488;-80
2022/07/17 09:59:52;;;;;;;6.07;2.20;;;25.70;44.60;;;;;;4979418;28;20089;-83
2022/07/17 10:02:20;;;;;;;4.30;1.48;;;27.20;43.10;;;;;;4976860;28;20053;-83
2022/07/17 10:04:47;;;;;;;6.20;2.92;;;28.00;40.80;;;;;;4977156;28;20026;-83
2022/07/17 10:07:13;;;;;;;5.13;2.30;;;28.10;41.20;;;;;;4983912;28;20041;-85
2022/07/17 10:09:39;;;;;;;8.18;3.40;;;27.90;40.90;;;;;;4996533;28;20492;-80
2022/07/17 10:12:07;;;;;;;2.15;1.48;;;27.80;40.90;;;;;;4989775;28;20059;-82
2022/07/17 10:14:34;;;;;;;4.18;1.90;;;27.80;40.60;;;;;;4976297;28;20349;-83
2022/07/17 10:17:10;;;;;;;5.40;1.50;;;27.80;40.60;;;;;;4979185;28;20030;-82
2022/07/17 10:19:49;;;;;;;3.70;1.42;;;28.20;40.80;;;;;;4977368;28;20022;-86
2022/07/17 10:22:15;;;;;;;1.88;1.50;;;28.30;40.10;;;;;;4976706;28;20027;-85
2022/07/17 10:25:04;;;;;;;3.10;1.27;;;28.50;40.10;;;;;;4978157;28;20050;-88
2022/07/17 10:27:30;;;;;;;6.80;2.63;;;28.70;40.20;;;;;;4968077;28;20044;-85
2022/07/17 10:30:05;;;;;;;4.88;1.38;;;28.70;39.20;;;;;;4982265;28;20105;-86
2022/07/17 10:32:32;;;;;;;4.80;1.10;;;28.70;39.00;;;;;;4982547;28;20045;-84
2022/07/17 10:35:09;;;;;;;4.28;1.42;;;28.30;38.90;;;;;;4983657;28;20023;-86
2022/07/17 10:37:35;;;;;;;3.72;1.75;;;28.00;40.00;;;;;;4983124;28;20015;-85
2022/07/17 10:40:06;;;;;;;1.50;1.13;;;27.50;40.70;;;;;;4982854;28;20440;-85
2022/07/17 10:42:52;;;;;;;2.40;1.40;;;27.20;41.10;;;;;;4964675;28;20102;-85
2022/07/17 10:45:33;;;;;;;2.03;1.30;;;27.00;41.80;;;;;;4971529;28;20023;-86
2022/07/17 10:48:09;;;;;;;2.47;1.60;;;26.90;42.60;;;;;;4969190;28;20018;-85
2022/07/17 10:50:48;;;;;;;4.45;1.85;;;26.80;42.30;;;;;;4995053;28;20044;-86
2022/07/17 10:53:23;;;;;;;3.28;1.30;;;26.50;43.00;;;;;;4974385;28;20057;-84
2022/07/17 10:56:03;;;;;;;2.33;1.17;;;26.10;43.10;;;;;;4969970;28;20066;-82
2022/07/17 10:58:33;;;;;;;5.32;2.08;;;25.90;44.10;;;;;;4995547;28;20081;-84
2022/07/17 11:01:02;;;;;;;4.47;3.63;;;25.90;44.00;;;;;;4991876;28;20380;-85
2022/07/17 11:03:29;;;;;;;6.05;2.50;;;26.00;43.60;;;;;;4979604;28;20034;-84
2022/07/17 11:06:05;;;;;;;4.30;2.03;;;26.10;44.20;;;;;;4996924;28;20053;-86
2022/07/17 11:08:31;;;;;;;3.13;1.20;;;26.30;44.50;;;;;;4989799;28;20039;-85
2022/07/17 11:10:57;;;;;;;5.23;2.20;;;26.60;44.10;;;;;;4959462;28;20046;-86
2022/07/17 11:13:23;;;;;;;2.05;1.25;;;26.90;43.10;;;;;;4973427;28;20432;-82
2022/07/17 11:15:49;;;;;;;1.60;0.90;;;26.90;42.80;;;;;;4982894;28;20022;-82
2022/07/17 11:18:17;;;;;;;2.00;1.10;;;26.90;41.80;;;;;;4978054;28;20034;-82
2022/07/17 11:20:58;;;;;;;2.65;1.17;;;26.80;41.50;;;;;;4989749;28;20022;-83
2022/07/17 11:23:29;;;;;;;2.40;1.17;;;26.70;41.30;;;;;;4975347;28;20043;-81
2022/07/17 11:26:06;;;;;;;2.92;1.70;;;26.40;40.90;;;;;;4959109;28;20054;-83
2022/07/17 11:28:33;;;;;;;;;;;26.10;42.20;;;;;;4978337;28;20110;-81
2022/07/17 11:31:01;;;;;;;2.97;1.95;;;25.90;42.20;;;;;;4977292;28;19996;-81
2022/07/17 11:33:26;;;;;;;;;;;25.80;42.10;;;;;;4975327;28;20034;-82
2022/07/17 11:35:54;;;;;;;2.67;1.20;;;25.60;41.90;;;;;;4976764;28;19909;-82
2022/07/17 11:38:30;;;;;;;1.77;1.25;;;25.50;42.10;;;;;;4975744;28;20022;-84
2022/07/17 11:40:56;;;;;;;5.18;2.03;;;25.30;42.10;;;;;;4971879;28;20125;-81
2022/07/17 11:43:22;;;;;;;2.73;1.47;;;25.20;44.40;;;;;;4977769;28;20404;-83
2022/07/17 11:45:48;;;;;;;3.85;1.75;;;25.00;43.70;;;;;;4977473;28;20146;-84
2022/07/17 11:48:14;;;;;;;2.13;1.20;;;24.80;45.00;;;;;;4991945;28;20023;-82
2022/07/17 11:50:40;;;;;;;3.15;1.55;;;24.50;45.20;;;;;;4972658;28;20088;-83
2022/07/17 11:53:06;;;;;;;3.15;1.20;;;24.30;45.40;;;;;;4974207;28;20360;-81
2022/07/17 11:55:40;;;;;;;1.55;1.08;;;24.20;45.80;;;;;;4992152;28;20037;-83
2022/07/17 11:58:06;;;;;;;2.05;1.58;;;24.50;46.30;;;;;;4980301;28;20039;-84
2022/07/17 12:00:33;;;;;;;3.67;1.35;;;24.50;45.80;;;;;;4954643;28;20400;-82
2022/07/17 12:03:05;;;;;;;7.05;1.65;;;24.60;45.40;;;;;;4983000;28;20036;-84
2022/07/17 12:05:34;;;;;;;3.03;2.35;;;24.60;46.10;;;;;;4945784;28;20399;-84
2022/07/17 12:08:00;;;;;;;3.53;2.28;;;24.60;44.90;;;;;;4959909;28;20069;-86
2022/07/17 12:10:28;;;;;;;6.57;1.52;;;24.60;43.90;;;;;;4979792;28;20026;-85
2022/07/17 12:13:01;;;;;;;3.88;2.55;;;24.60;43.50;;;;;;4961624;28;20508;-85
2022/07/17 12:15:48;;;;;;;2.53;1.00;;;24.60;43.40;;;;;;4975720;28;20023;-85
2022/07/17 12:18:24;;;;;;;4.30;2.15;;;24.70;42.30;;;;;;4969827;28;20038;-85
2022/07/17 12:21:05;;;;;;;2.38;1.60;;;24.80;41.90;;;;;;4980272;28;20019;-84
2022/07/17 12:23:36;;;;;;;2.28;1.35;;;24.80;41.70;;;;;;4991557;28;20038;-84
2022/07/17 12:26:10;;;;;;;5.63;1.95;;;24.90;41.40;;;;;;4992051;28;20030;-84
2022/07/17 12:28:37;;;;;;;4.03;1.60;;;24.90;40.00;;;;;;4971597;28;20023;-82
2022/07/17 12:31:03;;;;;;;4.60;1.60;;;24.90;40.10;;;;;;4980693;28;20022;-84
2022/07/17 12:33:29;;;;;;;3.83;1.42;;;25.00;40.20;;;;;;4976006;28;20035;-84
2022/07/17 12:35:55;;;;;;;2.75;2.00;;;24.90;40.20;;;;;;4975644;28;20037;-85
2022/07/17 12:38:21;;;;;;;6.05;3.42;;;25.00;39.40;;;;;;4958416;28;20042;-84
2022/07/17 12:40:47;;;;;;;4.32;1.70;;;24.90;39.70;;;;;;4981347;28;20026;-85
2022/07/17 12:43:13;;;;;;;1.90;1.13;;;25.00;39.40;;;;;;4961586;28;20039;-85
2022/07/17 12:45:39;;;;;;;2.78;1.67;;;25.10;39.90;;;;;;4967616;28;20623;-86
2022/07/17 12:48:05;;;;;;;4.00;2.10;;;25.30;40.70;;;;;;4975810;28;20113;-84
2022/07/17 12:50:31;;;;;;;6.72;3.80;;;25.40;39.30;;;;;;4976343;28;20039;-83
2022/07/17 12:52:57;;;;;;;4.05;2.15;;;25.50;38.80;;;;;;4982484;28;20018;-83